sensor_id;sensor_type;location;lat;lon;timestamp;P1;durP1;ratioP1;P2;durP2;ratioP2
36855;SDS011;22788;51.434;6.786;2023-10-13T00:01:25;4.82;;;4.30;;
36855;SDS011;22788;51.434;6.786;2023-10-13T00:03:51;7.13;;;5.15;;
36855;SDS011;22788;51.434;6.786;2023-10-13T00:06:18;8.30;;;5.50;;
36855;SDS011;22788;51.434;6.786;2023-10-13T00:08:44;6.30;;;5.00;;
36855;SDS011;22788;51.434;6.786;2023-10-13T00:11:11;6.70;;;5.03;;
36855;SDS011;22788;51.434;6.786;2023-10-13T00:13:37;6.45;;;5.45;;
36855;SDS011;22788;51.434;6.786;2023-10-13T00:16:03;7.15;;;5.00;;
36855;SDS011;22788;51.434;6.786;2023-10-13T00:18:30;6.90;;;4.50;;
36855;SDS011;22788;51.434;6.786;2023-10-13T00:20:56;6.43;;;4.88;;
36855;SDS011;22788;51.434;6.786;2023-10-13T00:23:23;5.72;;;4.93;;
36855;SDS011;22788;51.434;6.786;2023-10-13T00:25:49;6.47;;;5.05;;
36855;SDS011;22788;51.434;6.786;2023-10-13T00:28:15;8.30;;;5.90;;
36855;SDS011;22788;51.434;6.786;2023-10-13T00:30:41;7.03;;;4.72;;
36855;SDS011;22788;51.434;6.786;2023-10-13T00:33:07;5.13;;;4.60;;
36855;SDS011;22788;51.434;6.786;2023-10-13T00:35:33;5.38;;;4.85;;
36855;SDS011;22788;51.434;6.786;2023-10-13T00:37:59;6.20;;;5.22;;
36855;SDS011;22788;51.434;6.786;2023-10-13T00:40:27;7.45;;;5.15;;
36855;SDS011;22788;51.434;6.786;2023-10-13T00:42:53;4.70;;;4.10;;
36855;SDS011;22788;51.434;6.786;2023-10-13T00:45:19;5.80;;;4.85;;
36855;SDS011;22788;51.434;6.786;2023-10-13T00:47:44;5.88;;;4.80;;
36855;SDS011;22788;51.434;6.786;2023-10-13T00:50:11;6.85;;;5.35;;
36855;SDS011;22788;51.434;6.786;2023-10-13T00:52:37;8.98;;;5.00;;
36855;SDS011;22788;51.434;6.786;2023-10-13T00:55:03;7.90;;;5.07;;
36855;SDS011;22788;51.434;6.786;2023-10-13T00:57:31;8.48;;;5.32;;
36855;SDS011;22788;51.434;6.786;2023-10-13T00:59:57;6.25;;;4.78;;
36855;SDS011;22788;51.434;6.786;2023-10-13T01:02:23;6.60;;;4.45;;
36855;SDS011;22788;51.434;6.786;2023-10-13T01:04:49;5.30;;;4.47;;
36855;SDS011;22788;51.434;6.786;2023-10-13T01:07:15;9.65;;;4.53;;
36855;SDS011;22788;51.434;6.786;2023-10-13T01:09:41;6.30;;;5.05;;
36855;SDS011;22788;51.434;6.786;2023-10-13T01:12:07;7.90;;;4.43;;
36855;SDS011;22788;51.434;6.786;2023-10-13T01:14:35;5.40;;;4.70;;
36855;SDS011;22788;51.434;6.786;2023-10-13T01:17:01;6.53;;;4.68;;
36855;SDS011;22788;51.434;6.786;2023-10-13T01:19:27;6.78;;;4.90;;
36855;SDS011;22788;51.434;6.786;2023-10-13T01:21:53;5.18;;;4.15;;
36855;SDS011;22788;51.434;6.786;2023-10-13T01:24:21;7.05;;;4.50;;
36855;SDS011;22788;51.434;6.786;2023-10-13T01:26:47;6.05;;;4.80;;
36855;SDS011;22788;51.434;6.786;2023-10-13T01:29:12;4.78;;;4.28;;
36855;SDS011;22788;51.434;6.786;2023-10-13T01:31:38;6.47;;;4.80;;
36855;SDS011;22788;51.434;6.786;2023-10-13T01:34:04;6.85;;;4.75;;
36855;SDS011;22788;51.434;6.786;2023-10-13T01:36:30;8.23;;;5.28;;
36855;SDS011;22788;51.434;6.786;2023-10-13T01:38:56;7.65;;;4.53;;
36855;SDS011;22788;51.434;6.786;2023-10-13T01:41:24;6.05;;;4.63;;
36855;SDS011;22788;51.434;6.786;2023-10-13T01:43:50;5.25;;;4.75;;
36855;SDS011;22788;51.434;6.786;2023-10-13T01:46:16;6.20;;;4.22;;
36855;SDS011;22788;51.434;6.786;2023-10-13T01:48:42;5.13;;;4.60;;
36855;SDS011;22788;51.434;6.786;2023-10-13T01:51:08;5.72;;;4.43;;
36855;SDS011;22788;51.434;6.786;2023-10-13T01:53:33;7.45;;;5.25;;
36855;SDS011;22788;51.434;6.786;2023-10-13T01:55:59;6.32;;;5.13;;
36855;SDS011;22788;51.434;6.786;2023-10-13T01:58:27;6.55;;;4.45;;
36855;SDS011;22788;51.434;6.786;2023-10-13T02:00:53;4.95;;;4.32;;
36855;SDS011;22788;51.434;6.786;2023-10-13T02:03:19;5.80;;;4.72;;
36855;SDS011;22788;51.434;6.786;2023-10-13T02:05:45;5.95;;;4.50;;
36855;SDS011;22788;51.434;6.786;2023-10-13T02:08:11;4.85;;;4.20;;
36855;SDS011;22788;51.434;6.786;2023-10-13T02:10:38;4.90;;;4.47;;
36855;SDS011;22788;51.434;6.786;2023-10-13T02:13:04;5.78;;;4.60;;
36855;SDS011;22788;51.434;6.786;2023-10-13T02:15:31;5.40;;;4.90;;
36855;SDS011;22788;51.434;6.786;2023-10-13T02:17:57;4.30;;;3.90;;
36855;SDS011;22788;51.434;6.786;2023-10-13T02:20:23;4.80;;;4.38;;
36855;SDS011;22788;51.434;6.786;2023-10-13T02:22:49;6.05;;;5.28;;
36855;SDS011;22788;51.434;6.786;2023-10-13T02:25:15;6.35;;;4.72;;
36855;SDS011;22788;51.434;6.786;2023-10-13T02:27:41;5.65;;;4.80;;
36855;SDS011;22788;51.434;6.786;2023-10-13T02:30:07;7.00;;;4.53;;
36855;SDS011;22788;51.434;6.786;2023-10-13T02:32:35;5.50;;;4.72;;
36855;SDS011;22788;51.434;6.786;2023-10-13T02:35:01;5.43;;;4.65;;
36855;SDS011;22788;51.434;6.786;2023-10-13T02:37:27;6.00;;;4.95;;
36855;SDS011;22788;51.434;6.786;2023-10-13T02:39:53;8.27;;;4.75;;
36855;SDS011;22788;51.434;6.786;2023-10-13T02:42:18;5.68;;;4.60;;
36855;SDS011;22788;51.434;6.786;2023-10-13T02:44:44;6.55;;;5.28;;
36855;SDS011;22788;51.434;6.786;2023-10-13T02:47:10;6.53;;;4.35;;
36855;SDS011;22788;51.434;6.786;2023-10-13T02:49:38;6.38;;;4.82;;
36855;SDS011;22788;51.434;6.786;2023-10-13T02:52:04;7.00;;;4.78;;
36855;SDS011;22788;51.434;6.786;2023-10-13T02:54:29;9.52;;;4.93;;
36855;SDS011;22788;51.434;6.786;2023-10-13T02:56:55;8.05;;;4.45;;
36855;SDS011;22788;51.434;6.786;2023-10-13T02:59:22;7.82;;;4.93;;
36855;SDS011;22788;51.434;6.786;2023-10-13T03:01:48;5.68;;;4.25;;
36855;SDS011;22788;51.434;6.786;2023-10-13T03:04:14;6.32;;;4.32;;
36855;SDS011;22788;51.434;6.786;2023-10-13T03:06:41;6.82;;;4.78;;
36855;SDS011;22788;51.434;6.786;2023-10-13T03:09:08;5.00;;;4.25;;
36855;SDS011;22788;51.434;6.786;2023-10-13T03:11:34;6.75;;;4.28;;
36855;SDS011;22788;51.434;6.786;2023-10-13T03:14:00;6.50;;;5.28;;
36855;SDS011;22788;51.434;6.786;2023-10-13T03:16:26;4.53;;;4.05;;
36855;SDS011;22788;51.434;6.786;2023-10-13T03:18:52;7.22;;;4.72;;
36855;SDS011;22788;51.434;6.786;2023-10-13T03:21:18;5.90;;;4.30;;
36855;SDS011;22788;51.434;6.786;2023-10-13T03:23:45;5.07;;;4.45;;
36855;SDS011;22788;51.434;6.786;2023-10-13T03:26:11;6.53;;;4.55;;
36855;SDS011;22788;51.434;6.786;2023-10-13T03:28:37;7.57;;;5.07;;
36855;SDS011;22788;51.434;6.786;2023-10-13T03:31:03;5.20;;;4.47;;
36855;SDS011;22788;51.434;6.786;2023-10-13T03:33:29;7.30;;;4.85;;
36855;SDS011;22788;51.434;6.786;2023-10-13T03:35:55;6.38;;;4.50;;
36855;SDS011;22788;51.434;6.786;2023-10-13T03:38:20;7.22;;;4.68;;
36855;SDS011;22788;51.434;6.786;2023-10-13T03:40:49;6.78;;;4.53;;
36855;SDS011;22788;51.434;6.786;2023-10-13T03:43:15;9.65;;;5.82;;
36855;SDS011;22788;51.434;6.786;2023-10-13T03:45:42;5.43;;;4.25;;
36855;SDS011;22788;51.434;6.786;2023-10-13T03:48:09;6.05;;;4.57;;
36855;SDS011;22788;51.434;6.786;2023-10-13T03:50:35;5.00;;;4.07;;
36855;SDS011;22788;51.434;6.786;2023-10-13T03:53:01;6.43;;;4.88;;
36855;SDS011;22788;51.434;6.786;2023-10-13T03:55:27;6.20;;;4.72;;
36855;SDS011;22788;51.434;6.786;2023-10-13T03:57:54;5.22;;;4.13;;
36855;SDS011;22788;51.434;6.786;2023-10-13T04:00:20;5.18;;;4.05;;
36855;SDS011;22788;51.434;6.786;2023-10-13T04:02:47;5.97;;;5.25;;
36855;SDS011;22788;51.434;6.786;2023-10-13T04:05:13;6.47;;;4.88;;
36855;SDS011;22788;51.434;6.786;2023-10-13T04:07:38;5.97;;;4.85;;
36855;SDS011;22788;51.434;6.786;2023-10-13T04:10:05;8.23;;;4.80;;
36855;SDS011;22788;51.434;6.786;2023-10-13T04:12:31;7.45;;;4.90;;
36855;SDS011;22788;51.434;6.786;2023-10-13T04:14:58;8.55;;;6.80;;
36855;SDS011;22788;51.434;6.786;2023-10-13T04:17:24;5.43;;;4.57;;
36855;SDS011;22788;51.434;6.786;2023-10-13T04:19:51;5.28;;;4.25;;
36855;SDS011;22788;51.434;6.786;2023-10-13T04:22:17;7.28;;;4.55;;
36855;SDS011;22788;51.434;6.786;2023-10-13T04:24:43;8.32;;;5.78;;
36855;SDS011;22788;51.434;6.786;2023-10-13T04:27:09;9.73;;;6.18;;
36855;SDS011;22788;51.434;6.786;2023-10-13T04:29:35;6.38;;;4.80;;
36855;SDS011;22788;51.434;6.786;2023-10-13T04:32:02;5.88;;;4.80;;
36855;SDS011;22788;51.434;6.786;2023-10-13T04:34:28;5.72;;;4.85;;
36855;SDS011;22788;51.434;6.786;2023-10-13T04:36:54;5.63;;;4.38;;
36855;SDS011;22788;51.434;6.786;2023-10-13T04:39:20;5.95;;;5.13;;
36855;SDS011;22788;51.434;6.786;2023-10-13T04:41:46;6.35;;;5.57;;
36855;SDS011;22788;51.434;6.786;2023-10-13T04:44:12;6.45;;;5.05;;
36855;SDS011;22788;51.434;6.786;2023-10-13T04:46:38;8.35;;;4.53;;
36855;SDS011;22788;51.434;6.786;2023-10-13T04:49:06;6.15;;;5.25;;
36855;SDS011;22788;51.434;6.786;2023-10-13T04:51:32;5.35;;;4.30;;
36855;SDS011;22788;51.434;6.786;2023-10-13T04:53:58;8.38;;;5.60;;
36855;SDS011;22788;51.434;6.786;2023-10-13T04:56:24;10.05;;;6.57;;
36855;SDS011;22788;51.434;6.786;2023-10-13T04:58:49;5.78;;;4.82;;
36855;SDS011;22788;51.434;6.786;2023-10-13T05:01:15;7.82;;;5.55;;
36855;SDS011;22788;51.434;6.786;2023-10-13T05:03:41;7.20;;;5.20;;
36855;SDS011;22788;51.434;6.786;2023-10-13T05:06:09;6.53;;;4.65;;
36855;SDS011;22788;51.434;6.786;2023-10-13T05:08:35;5.05;;;4.50;;
36855;SDS011;22788;51.434;6.786;2023-10-13T05:11:02;8.80;;;6.00;;
36855;SDS011;22788;51.434;6.786;2023-10-13T05:13:28;5.13;;;4.60;;
36855;SDS011;22788;51.434;6.786;2023-10-13T05:15:54;5.80;;;4.50;;
36855;SDS011;22788;51.434;6.786;2023-10-13T05:18:20;5.80;;;4.82;;
36855;SDS011;22788;51.434;6.786;2023-10-13T05:20:46;6.47;;;4.65;;
36855;SDS011;22788;51.434;6.786;2023-10-13T05:23:13;7.50;;;5.20;;
36855;SDS011;22788;51.434;6.786;2023-10-13T05:25:39;4.60;;;4.20;;
36855;SDS011;22788;51.434;6.786;2023-10-13T05:28:05;7.82;;;5.53;;
36855;SDS011;22788;51.434;6.786;2023-10-13T05:30:31;7.25;;;5.50;;
36855;SDS011;22788;51.434;6.786;2023-10-13T05:32:57;7.82;;;5.22;;
36855;SDS011;22788;51.434;6.786;2023-10-13T05:35:23;8.30;;;4.95;;
36855;SDS011;22788;51.434;6.786;2023-10-13T05:37:49;6.93;;;4.60;;
36855;SDS011;22788;51.434;6.786;2023-10-13T05:40:17;7.63;;;5.78;;
36855;SDS011;22788;51.434;6.786;2023-10-13T05:42:42;7.28;;;5.50;;
36855;SDS011;22788;51.434;6.786;2023-10-13T05:45:08;6.50;;;5.43;;
36855;SDS011;22788;51.434;6.786;2023-10-13T05:47:34;8.48;;;6.85;;
36855;SDS011;22788;51.434;6.786;2023-10-13T05:50:00;10.32;;;6.13;;
36855;SDS011;22788;51.434;6.786;2023-10-13T05:52:26;7.65;;;5.65;;
36855;SDS011;22788;51.434;6.786;2023-10-13T05:54:52;8.70;;;6.63;;
36855;SDS011;22788;51.434;6.786;2023-10-13T05:57:19;8.88;;;5.75;;
36855;SDS011;22788;51.434;6.786;2023-10-13T05:59:45;8.32;;;4.95;;
36855;SDS011;22788;51.434;6.786;2023-10-13T06:02:11;8.45;;;5.43;;
36855;SDS011;22788;51.434;6.786;2023-10-13T06:04:37;6.78;;;5.28;;
36855;SDS011;22788;51.434;6.786;2023-10-13T06:07:03;7.80;;;5.35;;
36855;SDS011;22788;51.434;6.786;2023-10-13T06:09:29;12.98;;;7.38;;
36855;SDS011;22788;51.434;6.786;2023-10-13T06:11:55;11.02;;;6.07;;
36855;SDS011;22788;51.434;6.786;2023-10-13T06:14:22;6.53;;;5.28;;
36855;SDS011;22788;51.434;6.786;2023-10-13T06:16:48;7.15;;;5.03;;
36855;SDS011;22788;51.434;6.786;2023-10-13T06:19:14;8.13;;;5.53;;
36855;SDS011;22788;51.434;6.786;2023-10-13T06:21:40;8.15;;;5.93;;
36855;SDS011;22788;51.434;6.786;2023-10-13T06:24:06;8.73;;;4.90;;
36855;SDS011;22788;51.434;6.786;2023-10-13T06:26:32;6.95;;;5.20;;
36855;SDS011;22788;51.434;6.786;2023-10-13T06:28:58;8.02;;;5.10;;
36855;SDS011;22788;51.434;6.786;2023-10-13T06:31:26;8.18;;;4.68;;
36855;SDS011;22788;51.434;6.786;2023-10-13T06:33:52;6.38;;;4.85;;
36855;SDS011;22788;51.434;6.786;2023-10-13T06:36:17;6.22;;;4.93;;
36855;SDS011;22788;51.434;6.786;2023-10-13T06:38:43;9.43;;;5.28;;
36855;SDS011;22788;51.434;6.786;2023-10-13T06:41:09;7.57;;;4.97;;
36855;SDS011;22788;51.434;6.786;2023-10-13T06:43:36;5.50;;;4.75;;
36855;SDS011;22788;51.434;6.786;2023-10-13T06:46:02;7.50;;;4.78;;
36855;SDS011;22788;51.434;6.786;2023-10-13T06:48:29;8.20;;;5.22;;
36855;SDS011;22788;51.434;6.786;2023-10-13T06:50:55;8.00;;;4.65;;
36855;SDS011;22788;51.434;6.786;2023-10-13T06:53:21;7.75;;;5.55;;
36855;SDS011;22788;51.434;6.786;2023-10-13T06:55:47;7.07;;;5.35;;
36855;SDS011;22788;51.434;6.786;2023-10-13T06:58:13;7.93;;;5.13;;
36855;SDS011;22788;51.434;6.786;2023-10-13T07:00:39;6.13;;;4.72;;
36855;SDS011;22788;51.434;6.786;2023-10-13T07:03:05;8.20;;;4.72;;
36855;SDS011;22788;51.434;6.786;2023-10-13T07:05:35;9.15;;;5.10;;
36855;SDS011;22788;51.434;6.786;2023-10-13T07:08:00;6.88;;;5.05;;
36855;SDS011;22788;51.434;6.786;2023-10-13T07:10:26;8.65;;;4.93;;
36855;SDS011;22788;51.434;6.786;2023-10-13T07:12:52;6.50;;;4.43;;
36855;SDS011;22788;51.434;6.786;2023-10-13T07:15:18;9.45;;;5.13;;
36855;SDS011;22788;51.434;6.786;2023-10-13T07:17:44;6.80;;;4.43;;
36855;SDS011;22788;51.434;6.786;2023-10-13T07:20:10;7.75;;;4.22;;
36855;SDS011;22788;51.434;6.786;2023-10-13T07:22:38;6.53;;;4.40;;
36855;SDS011;22788;51.434;6.786;2023-10-13T07:25:04;6.07;;;4.13;;
36855;SDS011;22788;51.434;6.786;2023-10-13T07:27:30;4.78;;;3.92;;
36855;SDS011;22788;51.434;6.786;2023-10-13T07:29:56;6.32;;;4.28;;
36855;SDS011;22788;51.434;6.786;2023-10-13T07:32:23;7.70;;;4.97;;
36855;SDS011;22788;51.434;6.786;2023-10-13T07:34:49;6.53;;;4.70;;
36855;SDS011;22788;51.434;6.786;2023-10-13T07:37:15;9.32;;;5.15;;
36855;SDS011;22788;51.434;6.786;2023-10-13T07:39:42;9.27;;;5.05;;
36855;SDS011;22788;51.434;6.786;2023-10-13T07:42:08;9.35;;;5.00;;
36855;SDS011;22788;51.434;6.786;2023-10-13T07:44:34;9.98;;;4.63;;
36855;SDS011;22788;51.434;6.786;2023-10-13T07:47:01;8.52;;;4.93;;
36855;SDS011;22788;51.434;6.786;2023-10-13T07:49:28;7.47;;;4.72;;
36855;SDS011;22788;51.434;6.786;2023-10-13T07:51:54;7.70;;;4.70;;
36855;SDS011;22788;51.434;6.786;2023-10-13T07:54:20;8.20;;;5.15;;
36855;SDS011;22788;51.434;6.786;2023-10-13T07:56:48;7.75;;;4.90;;
36855;SDS011;22788;51.434;6.786;2023-10-13T07:59:14;7.47;;;4.70;;
36855;SDS011;22788;51.434;6.786;2023-10-13T08:01:40;7.70;;;5.20;;
36855;SDS011;22788;51.434;6.786;2023-10-13T08:04:05;7.38;;;5.22;;
36855;SDS011;22788;51.434;6.786;2023-10-13T08:06:31;8.15;;;4.85;;
36855;SDS011;22788;51.434;6.786;2023-10-13T08:08:57;8.65;;;5.25;;
36855;SDS011;22788;51.434;6.786;2023-10-13T08:11:23;9.02;;;5.43;;
36855;SDS011;22788;51.434;6.786;2023-10-13T08:13:51;9.43;;;5.65;;
36855;SDS011;22788;51.434;6.786;2023-10-13T08:16:17;9.48;;;6.00;;
36855;SDS011;22788;51.434;6.786;2023-10-13T08:18:43;6.40;;;4.93;;
36855;SDS011;22788;51.434;6.786;2023-10-13T08:21:09;8.15;;;4.70;;
36855;SDS011;22788;51.434;6.786;2023-10-13T08:23:35;13.13;;;5.32;;
36855;SDS011;22788;51.434;6.786;2023-10-13T08:26:08;7.55;;;4.50;;
36855;SDS011;22788;51.434;6.786;2023-10-13T08:28:34;9.88;;;5.50;;
36855;SDS011;22788;51.434;6.786;2023-10-13T08:31:04;13.85;;;5.55;;
36855;SDS011;22788;51.434;6.786;2023-10-13T08:33:29;7.22;;;4.55;;
36855;SDS011;22788;51.434;6.786;2023-10-13T08:35:55;8.68;;;5.00;;
36855;SDS011;22788;51.434;6.786;2023-10-13T08:38:21;8.38;;;4.85;;
36855;SDS011;22788;51.434;6.786;2023-10-13T08:40:47;7.70;;;4.82;;
36855;SDS011;22788;51.434;6.786;2023-10-13T08:43:16;6.97;;;5.00;;
36855;SDS011;22788;51.434;6.786;2023-10-13T08:45:43;11.38;;;5.32;;
36855;SDS011;22788;51.434;6.786;2023-10-13T08:48:10;9.88;;;6.13;;
36855;SDS011;22788;51.434;6.786;2023-10-13T08:50:37;9.30;;;5.40;;
36855;SDS011;22788;51.434;6.786;2023-10-13T08:53:03;10.50;;;5.13;;
36855;SDS011;22788;51.434;6.786;2023-10-13T08:55:30;13.55;;;6.05;;
36855;SDS011;22788;51.434;6.786;2023-10-13T08:57:55;8.63;;;4.75;;
36855;SDS011;22788;51.434;6.786;2023-10-13T09:00:21;11.05;;;5.57;;
36855;SDS011;22788;51.434;6.786;2023-10-13T09:02:47;7.45;;;4.60;;
36855;SDS011;22788;51.434;6.786;2023-10-13T09:05:15;7.68;;;5.35;;
36855;SDS011;22788;51.434;6.786;2023-10-13T09:07:44;9.10;;;5.03;;
36855;SDS011;22788;51.434;6.786;2023-10-13T09:10:10;8.80;;;6.03;;
36855;SDS011;22788;51.434;6.786;2023-10-13T09:12:36;6.00;;;4.85;;
36855;SDS011;22788;51.434;6.786;2023-10-13T09:15:02;8.25;;;5.13;;
36855;SDS011;22788;51.434;6.786;2023-10-13T09:17:29;9.75;;;5.00;;
36855;SDS011;22788;51.434;6.786;2023-10-13T09:19:55;11.10;;;5.63;;
36855;SDS011;22788;51.434;6.786;2023-10-13T09:22:24;8.35;;;5.57;;
36855;SDS011;22788;51.434;6.786;2023-10-13T09:24:50;11.32;;;5.88;;
36855;SDS011;22788;51.434;6.786;2023-10-13T09:27:16;6.43;;;5.32;;
36855;SDS011;22788;51.434;6.786;2023-10-13T09:29:42;7.53;;;5.13;;
36855;SDS011;22788;51.434;6.786;2023-10-13T09:32:07;8.63;;;4.88;;
36855;SDS011;22788;51.434;6.786;2023-10-13T09:34:33;10.18;;;5.43;;
36855;SDS011;22788;51.434;6.786;2023-10-13T09:36:59;6.53;;;4.82;;
36855;SDS011;22788;51.434;6.786;2023-10-13T09:39:26;7.80;;;5.15;;
36855;SDS011;22788;51.434;6.786;2023-10-13T09:41:52;11.80;;;5.18;;
36855;SDS011;22788;51.434;6.786;2023-10-13T09:44:18;7.47;;;4.82;;
36855;SDS011;22788;51.434;6.786;2023-10-13T09:46:43;8.18;;;5.40;;
36855;SDS011;22788;51.434;6.786;2023-10-13T09:49:11;8.50;;;4.78;;
36855;SDS011;22788;51.434;6.786;2023-10-13T09:51:38;9.93;;;5.40;;
36855;SDS011;22788;51.434;6.786;2023-10-13T09:54:06;10.40;;;5.10;;
36855;SDS011;22788;51.434;6.786;2023-10-13T09:56:39;10.07;;;6.43;;
36855;SDS011;22788;51.434;6.786;2023-10-13T09:59:09;9.77;;;5.00;;
36855;SDS011;22788;51.434;6.786;2023-10-13T10:01:40;8.35;;;5.63;;
36855;SDS011;22788;51.434;6.786;2023-10-13T10:04:09;7.97;;;4.90;;
36855;SDS011;22788;51.434;6.786;2023-10-13T10:06:36;10.38;;;5.68;;
36855;SDS011;22788;51.434;6.786;2023-10-13T10:09:05;6.75;;;4.80;;
36855;SDS011;22788;51.434;6.786;2023-10-13T10:11:47;8.77;;;5.50;;
36855;SDS011;22788;51.434;6.786;2023-10-13T10:14:23;11.18;;;5.72;;
36855;SDS011;22788;51.434;6.786;2023-10-13T10:17:04;8.43;;;5.53;;
36855;SDS011;22788;51.434;6.786;2023-10-13T10:19:30;10.45;;;6.05;;
36855;SDS011;22788;51.434;6.786;2023-10-13T10:22:02;7.95;;;5.75;;
36855;SDS011;22788;51.434;6.786;2023-10-13T10:24:28;6.72;;;4.93;;
36855;SDS011;22788;51.434;6.786;2023-10-13T10:26:55;7.93;;;5.68;;
36855;SDS011;22788;51.434;6.786;2023-10-13T10:29:21;14.35;;;6.43;;
36855;SDS011;22788;51.434;6.786;2023-10-13T10:31:47;13.02;;;6.40;;
36855;SDS011;22788;51.434;6.786;2023-10-13T10:34:13;11.88;;;6.82;;
36855;SDS011;22788;51.434;6.786;2023-10-13T10:36:39;10.30;;;6.55;;
36855;SDS011;22788;51.434;6.786;2023-10-13T10:39:06;8.10;;;5.93;;
36855;SDS011;22788;51.434;6.786;2023-10-13T10:41:31;11.30;;;5.95;;
36855;SDS011;22788;51.434;6.786;2023-10-13T10:43:58;10.82;;;6.60;;
36855;SDS011;22788;51.434;6.786;2023-10-13T10:46:25;16.10;;;8.88;;
36855;SDS011;22788;51.434;6.786;2023-10-13T10:48:52;11.32;;;6.88;;
36855;SDS011;22788;51.434;6.786;2023-10-13T10:51:18;9.88;;;6.18;;
36855;SDS011;22788;51.434;6.786;2023-10-13T10:53:43;9.98;;;6.60;;
36855;SDS011;22788;51.434;6.786;2023-10-13T10:56:09;8.88;;;6.22;;
36855;SDS011;22788;51.434;6.786;2023-10-13T10:58:35;11.82;;;5.90;;
36855;SDS011;22788;51.434;6.786;2023-10-13T11:01:05;9.55;;;6.07;;
36855;SDS011;22788;51.434;6.786;2023-10-13T11:03:31;9.60;;;5.93;;
36855;SDS011;22788;51.434;6.786;2023-10-13T11:05:57;11.15;;;6.68;;
36855;SDS011;22788;51.434;6.786;2023-10-13T11:08:23;10.52;;;6.75;;
36855;SDS011;22788;51.434;6.786;2023-10-13T11:10:49;11.25;;;6.15;;
36855;SDS011;22788;51.434;6.786;2023-10-13T11:13:15;7.65;;;6.18;;
36855;SDS011;22788;51.434;6.786;2023-10-13T11:15:41;13.23;;;6.43;;
36855;SDS011;22788;51.434;6.786;2023-10-13T11:18:08;10.80;;;6.18;;
36855;SDS011;22788;51.434;6.786;2023-10-13T11:20:34;13.55;;;6.68;;
36855;SDS011;22788;51.434;6.786;2023-10-13T11:23:10;12.18;;;6.88;;
36855;SDS011;22788;51.434;6.786;2023-10-13T11:25:36;9.77;;;6.50;;
36855;SDS011;22788;51.434;6.786;2023-10-13T11:28:11;16.15;;;6.30;;
36855;SDS011;22788;51.434;6.786;2023-10-13T11:30:37;10.48;;;7.15;;
36855;SDS011;22788;51.434;6.786;2023-10-13T11:33:04;8.68;;;6.28;;
36855;SDS011;22788;51.434;6.786;2023-10-13T11:35:31;11.30;;;6.65;;
36855;SDS011;22788;51.434;6.786;2023-10-13T11:37:57;9.82;;;6.60;;
36855;SDS011;22788;51.434;6.786;2023-10-13T11:40:23;11.52;;;6.85;;
36855;SDS011;22788;51.434;6.786;2023-10-13T11:42:48;10.30;;;6.40;;
36855;SDS011;22788;51.434;6.786;2023-10-13T11:45:14;10.52;;;6.65;;
36855;SDS011;22788;51.434;6.786;2023-10-13T11:47:39;14.75;;;8.00;;
36855;SDS011;22788;51.434;6.786;2023-10-13T11:50:05;11.57;;;7.10;;
36855;SDS011;22788;51.434;6.786;2023-10-13T11:52:32;8.80;;;5.88;;
36855;SDS011;22788;51.434;6.786;2023-10-13T11:54:58;13.25;;;6.97;;
36855;SDS011;22788;51.434;6.786;2023-10-13T11:57:23;12.23;;;7.00;;
36855;SDS011;22788;51.434;6.786;2023-10-13T11:59:49;10.70;;;6.90;;
36855;SDS011;22788;51.434;6.786;2023-10-13T12:02:14;11.98;;;6.78;;
36855;SDS011;22788;51.434;6.786;2023-10-13T12:04:40;13.73;;;7.15;;
36855;SDS011;22788;51.434;6.786;2023-10-13T12:07:06;11.27;;;7.03;;
36855;SDS011;22788;51.434;6.786;2023-10-13T12:09:33;11.10;;;6.75;;
36855;SDS011;22788;51.434;6.786;2023-10-13T12:11:59;15.30;;;6.78;;
36855;SDS011;22788;51.434;6.786;2023-10-13T12:14:24;12.68;;;6.00;;
36855;SDS011;22788;51.434;6.786;2023-10-13T12:16:50;10.32;;;6.60;;
36855;SDS011;22788;51.434;6.786;2023-10-13T12:19:16;12.80;;;6.35;;
36855;SDS011;22788;51.434;6.786;2023-10-13T12:21:41;12.80;;;7.57;;
36855;SDS011;22788;51.434;6.786;2023-10-13T12:24:08;14.57;;;7.28;;
36855;SDS011;22788;51.434;6.786;2023-10-13T12:26:35;13.50;;;6.82;;
36855;SDS011;22788;51.434;6.786;2023-10-13T12:29:00;16.35;;;6.78;;
36855;SDS011;22788;51.434;6.786;2023-10-13T12:31:26;13.65;;;6.90;;
36855;SDS011;22788;51.434;6.786;2023-10-13T12:33:51;13.23;;;6.95;;
36855;SDS011;22788;51.434;6.786;2023-10-13T12:36:17;10.57;;;6.50;;
36855;SDS011;22788;51.434;6.786;2023-10-13T12:38:43;11.45;;;6.55;;
36855;SDS011;22788;51.434;6.786;2023-10-13T12:41:09;16.80;;;7.03;;
36855;SDS011;22788;51.434;6.786;2023-10-13T12:43:35;11.85;;;6.43;;
36855;SDS011;22788;51.434;6.786;2023-10-13T12:46:01;12.25;;;6.93;;
36855;SDS011;22788;51.434;6.786;2023-10-13T12:48:27;10.88;;;6.30;;
36855;SDS011;22788;51.434;6.786;2023-10-13T12:50:53;7.57;;;5.93;;
36855;SDS011;22788;51.434;6.786;2023-10-13T12:53:19;15.55;;;7.10;;
36855;SDS011;22788;51.434;6.786;2023-10-13T12:55:44;15.65;;;6.78;;
36855;SDS011;22788;51.434;6.786;2023-10-13T12:58:10;13.00;;;6.18;;
36855;SDS011;22788;51.434;6.786;2023-10-13T13:00:37;13.75;;;6.57;;
36855;SDS011;22788;51.434;6.786;2023-10-13T13:03:03;14.55;;;6.50;;
36855;SDS011;22788;51.434;6.786;2023-10-13T13:05:29;14.18;;;6.63;;
36855;SDS011;22788;51.434;6.786;2023-10-13T13:07:54;13.35;;;6.53;;
36855;SDS011;22788;51.434;6.786;2023-10-13T13:10:20;12.85;;;7.55;;
36855;SDS011;22788;51.434;6.786;2023-10-13T13:12:46;16.05;;;6.65;;
36855;SDS011;22788;51.434;6.786;2023-10-13T13:15:12;9.10;;;6.30;;
36855;SDS011;22788;51.434;6.786;2023-10-13T13:17:39;12.63;;;6.90;;
36855;SDS011;22788;51.434;6.786;2023-10-13T13:20:05;14.70;;;7.10;;
36855;SDS011;22788;51.434;6.786;2023-10-13T13:22:31;11.52;;;6.45;;
36855;SDS011;22788;51.434;6.786;2023-10-13T13:24:56;11.75;;;5.70;;
36855;SDS011;22788;51.434;6.786;2023-10-13T13:27:22;12.30;;;6.55;;
36855;SDS011;22788;51.434;6.786;2023-10-13T13:29:48;16.20;;;7.75;;
36855;SDS011;22788;51.434;6.786;2023-10-13T13:32:13;9.57;;;6.20;;
36855;SDS011;22788;51.434;6.786;2023-10-13T13:34:41;11.18;;;6.55;;
36855;SDS011;22788;51.434;6.786;2023-10-13T13:37:06;11.25;;;6.55;;
36855;SDS011;22788;51.434;6.786;2023-10-13T13:39:32;13.02;;;6.55;;
36855;SDS011;22788;51.434;6.786;2023-10-13T13:41:57;12.77;;;5.95;;
36855;SDS011;22788;51.434;6.786;2023-10-13T13:44:23;11.02;;;6.13;;
36855;SDS011;22788;51.434;6.786;2023-10-13T13:46:49;13.07;;;6.65;;
36855;SDS011;22788;51.434;6.786;2023-10-13T13:49:14;12.13;;;6.03;;
36855;SDS011;22788;51.434;6.786;2023-10-13T13:51:41;12.80;;;6.68;;
36855;SDS011;22788;51.434;6.786;2023-10-13T13:54:07;10.13;;;6.35;;
36855;SDS011;22788;51.434;6.786;2023-10-13T13:56:33;14.73;;;6.45;;
36855;SDS011;22788;51.434;6.786;2023-10-13T13:58:58;16.48;;;6.80;;
36855;SDS011;22788;51.434;6.786;2023-10-13T14:01:24;17.27;;;6.47;;
36855;SDS011;22788;51.434;6.786;2023-10-13T14:03:49;11.80;;;6.43;;
36855;SDS011;22788;51.434;6.786;2023-10-13T14:06:15;14.95;;;6.47;;
36855;SDS011;22788;51.434;6.786;2023-10-13T14:08:44;19.27;;;7.13;;
36855;SDS011;22788;51.434;6.786;2023-10-13T14:11:09;16.13;;;7.13;;
36855;SDS011;22788;51.434;6.786;2023-10-13T14:13:35;14.73;;;6.50;;
36855;SDS011;22788;51.434;6.786;2023-10-13T14:16:00;15.20;;;7.22;;
36855;SDS011;22788;51.434;6.786;2023-10-13T14:18:26;14.40;;;6.40;;
36855;SDS011;22788;51.434;6.786;2023-10-13T14:20:52;12.88;;;6.40;;
36855;SDS011;22788;51.434;6.786;2023-10-13T14:23:17;11.95;;;6.25;;
36855;SDS011;22788;51.434;6.786;2023-10-13T14:25:44;18.50;;;6.60;;
36855;SDS011;22788;51.434;6.786;2023-10-13T14:28:10;13.35;;;6.57;;
36855;SDS011;22788;51.434;6.786;2023-10-13T14:30:36;15.07;;;6.68;;
36855;SDS011;22788;51.434;6.786;2023-10-13T14:33:01;12.80;;;6.70;;
36855;SDS011;22788;51.434;6.786;2023-10-13T14:35:27;13.23;;;7.10;;
36855;SDS011;22788;51.434;6.786;2023-10-13T14:37:53;17.30;;;7.18;;